createdAt,value
2023-04-29T00:01:41.099Z,12.90
2023-04-29T00:04:09.466Z,14.35
2023-04-29T00:06:37.171Z,17.83
2023-04-29T00:09:04.572Z,14.63
2023-04-29T00:11:32.177Z,15.85
2023-04-29T00:13:59.710Z,17.13
2023-04-29T00:16:27.179Z,14.23
2023-04-29T00:18:54.620Z,15.68
2023-04-29T00:21:22.011Z,18.70
2023-04-29T00:23:49.319Z,14.18
2023-04-29T00:26:16.734Z,13.23
2023-04-29T00:28:47.074Z,13.20
2023-04-29T00:31:14.834Z,17.48
2023-04-29T00:33:42.592Z,17.30
2023-04-29T00:36:10.110Z,17.85
2023-04-29T00:38:37.692Z,16.50
2023-04-29T00:41:05.174Z,14.32
2023-04-29T00:43:32.544Z,14.82
2023-04-29T00:46:00.098Z,15.43
2023-04-29T00:48:27.575Z,17.00
2023-04-29T00:50:55.001Z,16.20
2023-04-29T00:53:23.242Z,16.08
2023-04-29T00:55:52.183Z,14.30
2023-04-29T00:58:20.132Z,18.52
2023-04-29T01:00:49.591Z,16.95
2023-04-29T01:03:17.186Z,16.20
2023-04-29T01:05:50.060Z,13.95
2023-04-29T01:08:46.128Z,13.90
2023-04-29T01:11:16.119Z,13.07
2023-04-29T01:14:03.027Z,13.20
2023-04-29T01:16:37.484Z,15.88
2023-04-29T01:19:26.823Z,16.48
2023-04-29T01:21:54.344Z,16.35
2023-04-29T01:24:21.707Z,15.82
2023-04-29T01:27:02.711Z,15.13
2023-04-29T01:30:08.830Z,12.93
2023-04-29T01:32:50.418Z,13.15
2023-04-29T01:35:38.681Z,16.58
2023-04-29T01:38:20.470Z,15.85
2023-04-29T01:41:13.044Z,13.52
2023-04-29T01:43:41.241Z,15.23
2023-04-29T01:46:21.529Z,19.17
2023-04-29T01:48:56.017Z,15.73
2023-04-29T01:51:24.052Z,15.48
2023-04-29T01:53:51.906Z,18.35
2023-04-29T01:56:19.375Z,18.20
2023-04-29T01:59:08.105Z,20.83
2023-04-29T02:01:35.386Z,16.55
2023-04-29T02:04:03.405Z,17.20
2023-04-29T02:06:32.295Z,17.00
2023-04-29T02:09:03.080Z,19.77
2023-04-29T02:11:32.240Z,20.60
2023-04-29T02:13:59.611Z,18.35
2023-04-29T02:16:28.024Z,20.25
2023-04-29T02:19:02.071Z,15.98
2023-04-29T02:21:29.553Z,18.52
2023-04-29T02:23:56.929Z,19.38
2023-04-29T02:26:25.454Z,18.42
2023-04-29T02:28:56.471Z,21.55
2023-04-29T02:31:23.906Z,24.58
2023-04-29T02:33:51.689Z,21.48
2023-04-29T02:36:19.893Z,20.30
2023-04-29T02:38:50.525Z,18.83
2023-04-29T02:41:18.269Z,19.45
2023-04-29T02:43:46.567Z,17.45
2023-04-29T02:46:13.947Z,14.65
2023-04-29T02:48:41.470Z,18.15
2023-04-29T02:51:09.171Z,19.52
2023-04-29T02:53:36.675Z,20.25
2023-04-29T02:56:04.511Z,18.38
2023-04-29T02:58:31.838Z,18.15
2023-04-29T03:00:59.134Z,18.85
2023-04-29T03:03:26.800Z,16.45
2023-04-29T03:05:54.309Z,17.30
2023-04-29T03:08:22.153Z,20.63
2023-04-29T03:10:49.489Z,21.75
2023-04-29T03:13:16.819Z,19.30
2023-04-29T03:15:45.696Z,17.90
2023-04-29T03:18:13.205Z,16.00
2023-04-29T03:20:41.056Z,17.77
2023-04-29T03:23:08.317Z,18.23
2023-04-29T03:25:36.916Z,16.48
2023-04-29T03:28:04.430Z,19.42
2023-04-29T03:30:32.913Z,17.73
2023-04-29T03:33:00.634Z,17.73
2023-04-29T03:35:29.996Z,16.85
2023-04-29T03:38:17.262Z,14.50
2023-04-29T03:40:45.740Z,18.50
2023-04-29T03:43:13.988Z,15.00
2023-04-29T03:45:41.803Z,16.10
2023-04-29T03:48:10.068Z,12.75
2023-04-29T03:50:37.868Z,15.05
2023-04-29T03:53:05.710Z,12.90
2023-04-29T03:55:33.091Z,12.57
2023-04-29T03:58:00.581Z,11.75
2023-04-29T04:00:31.345Z,13.27
2023-04-29T04:03:02.154Z,10.23
2023-04-29T04:05:32.352Z,10.35
2023-04-29T04:08:06.260Z,13.27
2023-04-29T04:10:49.706Z,9.23
2023-04-29T04:13:28.646Z,12.98
2023-04-29T04:15:55.990Z,11.32
2023-04-29T04:18:23.371Z,10.57
2023-04-29T04:20:50.693Z,11.10
2023-04-29T04:23:17.968Z,11.15
2023-04-29T04:25:47.483Z,10.18
2023-04-29T04:28:34.824Z,10.60
2023-04-29T04:31:08.092Z,10.05
2023-04-29T04:33:36.301Z,8.88
2023-04-29T04:36:03.710Z,9.52
2023-04-29T04:38:32.874Z,10.30
2023-04-29T04:41:02.569Z,10.70
2023-04-29T04:43:34.913Z,8.90
2023-04-29T04:46:11.954Z,8.40
2023-04-29T04:48:43.050Z,7.88
2023-04-29T04:51:14.264Z,9.70
2023-04-29T04:53:43.679Z,8.48
2023-04-29T04:56:19.340Z,7.10
2023-04-29T04:58:47.220Z,6.60
2023-04-29T05:01:15.564Z,7.63
2023-04-29T05:03:43.209Z,8.50
2023-04-29T05:06:10.782Z,6.95
2023-04-29T05:08:41.140Z,8.68
2023-04-29T05:11:20.129Z,6.85
2023-04-29T05:14:00.799Z,8.60
2023-04-29T05:16:28.235Z,7.32
2023-04-29T05:18:57.797Z,7.40
2023-04-29T05:21:30.225Z,8.32
2023-04-29T05:23:58.413Z,7.85
2023-04-29T05:26:25.829Z,9.32
2023-04-29T05:28:55.736Z,7.22
2023-04-29T05:31:24.495Z,6.28
2023-04-29T05:33:51.845Z,6.30
2023-04-29T05:36:19.250Z,6.15
2023-04-29T05:38:46.786Z,8.52
2023-04-29T05:41:14.429Z,8.65
2023-04-29T05:44:01.734Z,7.10
2023-04-29T05:46:32.217Z,6.60
2023-04-29T05:48:59.683Z,7.30
2023-04-29T05:51:28.210Z,6.30
2023-04-29T05:53:55.884Z,7.00
2023-04-29T05:56:23.411Z,7.22
2023-04-29T05:58:50.850Z,7.10
2023-04-29T06:01:18.624Z,7.72
2023-04-29T06:03:46.691Z,9.00
2023-04-29T06:06:49.453Z,9.82
2023-04-29T06:09:49.353Z,8.45
2023-04-29T06:12:16.858Z,8.07
2023-04-29T06:14:46.439Z,9.02
2023-04-29T06:17:15.067Z,7.32
2023-04-29T06:19:42.490Z,7.22
2023-04-29T06:22:10.786Z,8.10
2023-04-29T06:24:41.371Z,7.95
2023-04-29T06:27:10.130Z,10.88
2023-04-29T06:29:37.917Z,10.63
2023-04-29T06:32:05.690Z,9.65
2023-04-29T06:34:33.898Z,9.85
2023-04-29T06:37:19.831Z,9.32
2023-04-29T06:40:10.716Z,9.05
2023-04-29T06:42:43.809Z,11.13
2023-04-29T06:45:30.085Z,11.50
2023-04-29T06:48:05.077Z,10.88
2023-04-29T06:50:56.952Z,11.27
2023-04-29T06:53:24.838Z,12.02
2023-04-29T06:55:52.309Z,12.15
2023-04-29T06:58:21.229Z,11.75
2023-04-29T07:00:50.743Z,13.07
2023-04-29T07:03:19.024Z,11.50
2023-04-29T07:05:46.679Z,12.77
2023-04-29T07:08:14.727Z,11.90
2023-04-29T07:10:42.122Z,11.85
2023-04-29T07:13:09.614Z,10.95
2023-04-29T07:15:37.649Z,10.63
2023-04-29T07:18:05.935Z,11.98
2023-04-29T07:20:36.370Z,12.50
2023-04-29T07:23:03.728Z,12.57
2023-04-29T07:25:31.238Z,13.10
2023-04-29T07:27:58.580Z,13.23
2023-04-29T07:30:26.574Z,12.20
2023-04-29T07:32:54.149Z,10.60
2023-04-29T07:35:21.624Z,13.70
2023-04-29T07:37:49.167Z,14.05
2023-04-29T07:40:16.680Z,14.27
2023-04-29T07:42:44.236Z,13.18
2023-04-29T07:45:15.041Z,13.15
2023-04-29T07:47:43.211Z,11.98
2023-04-29T07:50:11.571Z,12.93
2023-04-29T07:52:39.429Z,13.50
2023-04-29T07:55:07.005Z,12.23
2023-04-29T07:57:34.480Z,12.30
2023-04-29T08:00:02.325Z,11.63
2023-04-29T08:02:29.962Z,10.90
2023-04-29T08:04:58.319Z,11.38
2023-04-29T08:07:26.318Z,11.13
2023-04-29T08:09:53.664Z,10.60
2023-04-29T08:12:21.032Z,10.60
2023-04-29T08:14:48.363Z,8.98
2023-04-29T08:17:15.715Z,8.70
2023-04-29T08:19:43.125Z,8.73
2023-04-29T08:22:12.176Z,8.90
2023-04-29T08:24:39.495Z,8.70
2023-04-29T08:27:06.860Z,7.30
2023-04-29T08:29:34.740Z,7.22
2023-04-29T08:32:02.383Z,7.88
2023-04-29T08:34:31.486Z,7.80
2023-04-29T08:36:58.798Z,7.60
2023-04-29T08:39:26.170Z,7.53
2023-04-29T08:41:54.829Z,7.70
2023-04-29T08:44:22.490Z,6.78
2023-04-29T08:46:50.918Z,6.65
2023-04-29T08:49:18.489Z,7.07
2023-04-29T08:51:48.098Z,6.80
2023-04-29T08:54:15.419Z,7.60
2023-04-29T08:56:46.322Z,7.22
2023-04-29T08:59:43.210Z,6.90
2023-04-29T09:02:18.012Z,7.60
2023-04-29T09:05:13.707Z,7.63
2023-04-29T09:10:09.947Z,8.70
2023-04-29T09:12:38.116Z,8.85
2023-04-29T09:15:06.330Z,7.68
2023-04-29T09:17:47.760Z,7.72
2023-04-29T09:20:21.547Z,7.07
2023-04-29T09:22:57.319Z,8.00
2023-04-29T09:25:27.149Z,7.22
2023-04-29T09:27:56.943Z,7.38
2023-04-29T09:30:24.600Z,7.03
2023-04-29T09:33:09.000Z,7.07
2023-04-29T09:35:40.496Z,6.40
2023-04-29T09:38:16.225Z,7.13
2023-04-29T09:40:58.297Z,6.80
2023-04-29T09:43:26.964Z,6.40
2023-04-29T09:45:54.642Z,7.20
2023-04-29T09:48:22.211Z,6.93
2023-04-29T09:51:04.090Z,7.28
2023-04-29T09:53:32.319Z,7.50
2023-04-29T09:56:03.782Z,7.00
2023-04-29T09:58:42.048Z,7.60
2023-04-29T10:01:10.480Z,6.93
2023-04-29T10:03:39.268Z,7.30
2023-04-29T10:06:13.941Z,6.38
2023-04-29T10:08:41.823Z,6.80
2023-04-29T10:11:11.822Z,7.07
2023-04-29T10:13:44.677Z,6.70
2023-04-29T10:16:30.663Z,5.88
2023-04-29T10:19:04.327Z,6.72
2023-04-29T10:21:32.701Z,6.82
2023-04-29T10:24:02.274Z,6.82
2023-04-29T10:26:31.966Z,7.70
2023-04-29T10:29:01.624Z,7.78
2023-04-29T10:31:31.709Z,8.05
2023-04-29T10:34:01.043Z,9.02
2023-04-29T10:36:31.545Z,9.65
2023-04-29T10:39:04.521Z,9.40
2023-04-29T10:41:45.744Z,8.98
2023-04-29T10:44:14.194Z,9.10
2023-04-29T10:46:41.529Z,10.30
2023-04-29T10:49:10.578Z,10.35
2023-04-29T10:51:45.347Z,10.20
2023-04-29T10:54:25.520Z,10.65
2023-04-29T10:56:54.444Z,9.88
2023-04-29T10:59:34.119Z,10.15
2023-04-29T11:02:01.471Z,9.68
2023-04-29T11:04:31.283Z,8.60
2023-04-29T11:07:03.000Z,8.68
2023-04-29T11:09:34.206Z,8.30
2023-04-29T11:12:08.541Z,9.27
2023-04-29T11:14:37.437Z,9.10
2023-04-29T11:17:15.886Z,10.18
2023-04-29T11:19:51.948Z,9.55
2023-04-29T11:22:33.885Z,9.23
2023-04-29T11:25:09.047Z,8.68
2023-04-29T11:27:39.245Z,8.25
2023-04-29T11:30:07.898Z,8.85
2023-04-29T11:32:37.743Z,7.13
2023-04-29T11:35:15.620Z,7.80
2023-04-29T11:37:45.279Z,7.35
2023-04-29T11:40:13.918Z,6.80
2023-04-29T11:42:47.339Z,7.40
2023-04-29T11:45:17.215Z,6.45
2023-04-29T11:47:46.352Z,6.25
2023-04-29T11:50:16.994Z,5.55
2023-04-29T11:52:46.218Z,4.72
2023-04-29T11:55:14.650Z,4.85
2023-04-29T11:57:42.050Z,4.10
2023-04-29T12:00:12.689Z,4.15
2023-04-29T12:02:44.295Z,3.92
2023-04-29T12:05:13.264Z,4.13
2023-04-29T12:07:41.095Z,3.83
2023-04-29T12:10:10.805Z,3.63
2023-04-29T12:12:41.272Z,3.97
2023-04-29T12:15:35.479Z,4.20
2023-04-29T12:19:06.112Z,3.92
2023-04-29T12:21:34.883Z,4.45
2023-04-29T12:24:03.758Z,5.07
2023-04-29T12:26:35.632Z,5.78
2023-04-29T12:29:04.289Z,6.55
2023-04-29T12:31:35.045Z,5.55
2023-04-29T12:34:07.473Z,6.43
2023-04-29T12:36:37.659Z,6.33
2023-04-29T12:39:23.468Z,6.70
2023-04-29T12:41:54.578Z,6.60
2023-04-29T12:44:22.262Z,7.18
2023-04-29T12:46:49.619Z,6.95
2023-04-29T12:49:19.015Z,6.22
2023-04-29T12:51:46.453Z,6.45
2023-04-29T12:54:13.771Z,5.90
2023-04-29T12:56:41.245Z,6.20
2023-04-29T12:59:10.008Z,5.63
2023-04-29T13:01:38.492Z,6.13
2023-04-29T13:04:08.924Z,6.60
2023-04-29T13:06:39.611Z,7.00
2023-04-29T13:09:17.050Z,6.82
2023-04-29T13:11:47.105Z,7.25
2023-04-29T13:14:15.616Z,7.05
2023-04-29T13:16:43.090Z,7.93
2023-04-29T13:19:30.060Z,7.60
2023-04-29T13:21:58.326Z,7.95
2023-04-29T13:24:25.596Z,8.35
2023-04-29T13:26:53.036Z,8.98
2023-04-29T13:29:20.790Z,8.73
2023-04-29T13:31:48.353Z,9.65
2023-04-29T13:34:17.347Z,11.63
2023-04-29T13:36:44.651Z,11.85
2023-04-29T13:39:11.739Z,12.20
2023-04-29T13:41:44.168Z,12.98
2023-04-29T13:44:23.583Z,11.48
2023-04-29T13:46:56.014Z,12.00
2023-04-29T13:49:56.084Z,12.30
2023-04-29T13:59:57.445Z,14.18
2023-04-29T14:02:26.203Z,14.73
2023-04-29T14:04:54.406Z,14.30
2023-04-29T14:07:22.459Z,14.23
2023-04-29T14:09:49.464Z,14.60
2023-04-29T14:12:16.406Z,13.10
2023-04-29T14:14:43.372Z,13.38
2023-04-29T14:17:10.292Z,13.98
2023-04-29T14:19:37.375Z,14.35
2023-04-29T14:22:04.473Z,14.52
2023-04-29T14:24:31.374Z,13.35
2023-04-29T14:26:59.047Z,14.55
2023-04-29T14:29:25.976Z,13.85
2023-04-29T14:31:53.019Z,14.90
2023-04-29T14:34:20.039Z,14.05
2023-04-29T14:36:47.094Z,13.55
2023-04-29T14:39:16.966Z,14.38
2023-04-29T14:41:44.649Z,13.10
2023-04-29T14:44:11.502Z,14.30
2023-04-29T14:46:38.445Z,13.48
2023-04-29T14:49:06.026Z,13.02
2023-04-29T14:51:32.963Z,13.43
2023-04-29T14:53:59.932Z,13.57
2023-04-29T14:56:27.792Z,13.63
2023-04-29T14:58:54.818Z,14.60
2023-04-29T15:01:21.729Z,14.13
2023-04-29T15:03:48.736Z,14.10
2023-04-29T15:06:15.823Z,14.10
2023-04-29T15:08:43.049Z,14.43
2023-04-29T15:11:10.014Z,13.60
2023-04-29T15:13:37.324Z,15.32
2023-04-29T15:16:04.798Z,13.27
2023-04-29T15:18:31.878Z,13.82
2023-04-29T15:20:59.244Z,13.52
2023-04-29T15:23:26.439Z,13.95
2023-04-29T15:25:53.323Z,12.30
2023-04-29T15:28:20.204Z,13.02
2023-04-29T15:30:47.562Z,15.65
2023-04-29T15:33:14.696Z,12.70
2023-04-29T15:35:41.549Z,14.35
2023-04-29T15:38:08.892Z,12.82
2023-04-29T15:40:35.797Z,14.02
2023-04-29T15:43:02.714Z,14.88
2023-04-29T15:45:29.608Z,13.05
2023-04-29T15:47:56.540Z,14.32
2023-04-29T15:50:23.672Z,15.15
2023-04-29T15:52:55.039Z,13.73
2023-04-29T15:55:22.313Z,13.93
2023-04-29T15:57:51.367Z,14.00
2023-04-29T16:00:19.059Z,14.00
2023-04-29T16:02:46.018Z,14.30
2023-04-29T16:05:12.954Z,13.95
2023-04-29T16:07:40.112Z,14.45
2023-04-29T16:10:07.672Z,14.55
2023-04-29T16:12:34.732Z,13.55
2023-04-29T16:15:01.723Z,13.55
2023-04-29T16:17:29.574Z,13.38
2023-04-29T16:19:56.791Z,15.10
2023-04-29T16:22:24.219Z,13.63
2023-04-29T16:24:51.172Z,13.57
2023-04-29T16:27:18.830Z,14.93
2023-04-29T16:29:46.037Z,15.02
2023-04-29T16:32:12.921Z,14.27
2023-04-29T16:34:39.890Z,14.02
2023-04-29T16:37:12.252Z,14.25
2023-04-29T16:39:40.747Z,15.27
2023-04-29T16:42:07.983Z,14.65
2023-04-29T16:44:36.294Z,14.02
2023-04-29T16:47:04.540Z,14.82
2023-04-29T16:49:32.946Z,14.40
2023-04-29T16:52:00.466Z,14.50
2023-04-29T16:54:27.856Z,14.55
2023-04-29T16:56:54.880Z,16.02
2023-04-29T16:59:21.857Z,14.05
2023-04-29T17:01:49.365Z,13.77
2023-04-29T17:04:16.445Z,13.73
2023-04-29T17:06:43.625Z,13.77
2023-04-29T17:09:11.279Z,14.20
2023-04-29T17:11:38.384Z,14.00
2023-04-29T17:14:05.362Z,14.18
2023-04-29T17:16:33.179Z,13.63
2023-04-29T17:19:00.371Z,14.27
2023-04-29T17:21:30.465Z,13.73
2023-04-29T17:23:57.815Z,13.93
2023-04-29T17:26:24.753Z,13.18
2023-04-29T17:28:51.708Z,12.73
2023-04-29T17:31:20.760Z,13.23
2023-04-29T17:34:05.353Z,13.25
2023-04-29T17:36:33.354Z,12.38
2023-04-29T17:39:00.350Z,12.80
2023-04-29T17:41:27.303Z,12.60
2023-04-29T17:43:54.525Z,12.75
2023-04-29T17:46:21.519Z,14.20
2023-04-29T17:48:48.665Z,13.10
2023-04-29T17:51:15.593Z,13.40
2023-04-29T17:53:42.579Z,12.95
2023-04-29T17:56:09.648Z,12.85
2023-04-29T17:58:36.571Z,13.70
2023-04-29T18:01:05.929Z,13.32
2023-04-29T18:03:33.138Z,12.43
2023-04-29T18:06:00.196Z,13.05
2023-04-29T18:08:27.231Z,12.43
2023-04-29T18:10:54.110Z,12.13
2023-04-29T18:13:21.140Z,12.73
2023-04-29T18:15:49.012Z,13.38
2023-04-29T18:18:16.206Z,11.18
2023-04-29T18:20:44.139Z,10.65
2023-04-29T18:23:11.905Z,11.73
2023-04-29T18:25:39.964Z,11.25
2023-04-29T18:28:23.437Z,11.15
2023-04-29T18:30:52.904Z,10.13
2023-04-29T18:33:20.089Z,9.85
2023-04-29T18:35:47.175Z,9.60
2023-04-29T18:38:17.262Z,12.00
2023-04-29T18:40:44.708Z,13.20
2023-04-29T18:43:17.211Z,13.35
2023-04-29T18:45:45.765Z,12.05
2023-04-29T18:48:15.405Z,14.30
2023-04-29T18:50:43.010Z,12.25
2023-04-29T18:53:10.624Z,13.80
2023-04-29T18:55:37.959Z,14.98
2023-04-29T18:58:06.591Z,15.98
2023-04-29T19:00:33.781Z,12.70
2023-04-29T19:03:01.226Z,13.88
2023-04-29T19:05:28.223Z,12.93
2023-04-29T19:07:55.332Z,12.45
2023-04-29T19:10:24.550Z,10.45
2023-04-29T19:12:51.406Z,10.85
2023-04-29T19:15:18.647Z,12.48
2023-04-29T19:17:45.660Z,10.68
2023-04-29T19:20:13.014Z,10.77
2023-04-29T19:22:41.631Z,11.88
2023-04-29T19:25:13.350Z,12.27
2023-04-29T19:27:44.984Z,11.10
2023-04-29T19:30:13.293Z,13.30
2023-04-29T19:32:40.469Z,10.57
2023-04-29T19:35:08.362Z,13.45
2023-04-29T19:37:35.474Z,13.93
2023-04-29T19:40:02.852Z,13.68
2023-04-29T19:42:30.632Z,12.85
2023-04-29T19:44:57.602Z,12.13
2023-04-29T19:47:24.987Z,13.20
2023-04-29T19:49:52.195Z,12.93
2023-04-29T19:52:19.425Z,12.82
2023-04-29T19:54:46.341Z,12.65
2023-04-29T19:57:13.256Z,14.13
2023-04-29T19:59:40.174Z,12.05
2023-04-29T20:02:08.787Z,11.18
2023-04-29T20:04:35.869Z,12.38
2023-04-29T20:07:02.936Z,12.00
2023-04-29T20:09:31.727Z,11.85
2023-04-29T20:11:58.641Z,10.50
2023-04-29T20:14:26.329Z,11.43
2023-04-29T20:16:54.262Z,10.82
2023-04-29T20:19:21.214Z,10.43
2023-04-29T20:21:48.056Z,10.40
2023-04-29T20:24:15.299Z,13.00
2023-04-29T20:26:42.236Z,14.07
2023-04-29T20:29:09.421Z,12.73
2023-04-29T20:31:36.900Z,12.00
2023-04-29T20:34:03.870Z,13.30
2023-04-29T20:36:31.925Z,12.48
2023-04-29T20:38:58.954Z,13.45
2023-04-29T20:41:28.885Z,12.95
2023-04-29T20:43:56.231Z,11.80
2023-04-29T20:46:27.745Z,11.45
2023-04-29T20:48:54.765Z,13.82
2023-04-29T20:51:24.024Z,14.00
2023-04-29T20:53:52.501Z,16.50
2023-04-29T20:56:19.535Z,14.88
2023-04-29T20:58:46.466Z,12.23
2023-04-29T21:01:13.551Z,16.10
2023-04-29T21:03:41.481Z,15.80
2023-04-29T21:06:08.394Z,15.48
2023-04-29T21:08:35.507Z,14.32
2023-04-29T21:11:05.035Z,15.93
2023-04-29T21:13:32.029Z,14.50
2023-04-29T21:15:59.013Z,12.52
2023-04-29T21:18:26.187Z,16.20
2023-04-29T21:20:53.245Z,15.95
2023-04-29T21:23:20.397Z,13.73
2023-04-29T21:25:47.280Z,14.63
2023-04-29T21:28:15.553Z,14.48
2023-04-29T21:30:44.015Z,13.85
2023-04-29T21:33:11.010Z,13.93
2023-04-29T21:35:41.902Z,15.55
2023-04-29T21:38:09.198Z,15.07
2023-04-29T21:40:40.945Z,13.95
2023-04-29T21:43:10.073Z,14.23
2023-04-29T21:45:37.632Z,12.27
2023-04-29T21:48:17.487Z,13.25
2023-04-29T21:50:45.184Z,13.70
2023-04-29T21:53:15.877Z,15.02
2023-04-29T21:55:43.629Z,13.35
2023-04-29T21:58:11.012Z,12.65
2023-04-29T22:00:47.661Z,13.70
2023-04-29T22:03:16.208Z,11.60
2023-04-29T22:05:43.957Z,14.02
2023-04-29T22:08:11.100Z,13.05
2023-04-29T22:10:40.107Z,13.15
2023-04-29T22:13:08.052Z,14.23
2023-04-29T22:15:34.989Z,14.13
2023-04-29T22:18:02.147Z,14.68
2023-04-29T22:20:29.267Z,12.02
2023-04-29T22:22:57.032Z,14.27
2023-04-29T22:25:24.075Z,15.07
2023-04-29T22:27:52.005Z,14.73
2023-04-29T22:30:20.786Z,14.98
2023-04-29T22:32:47.973Z,11.93
2023-04-29T22:35:16.065Z,14.57
2023-04-29T22:37:42.994Z,16.02
2023-04-29T22:40:11.503Z,13.95
2023-04-29T22:42:39.634Z,11.82
2023-04-29T22:45:07.562Z,16.15
2023-04-29T22:47:34.474Z,14.13
2023-04-29T22:50:01.395Z,14.73
2023-04-29T22:52:28.271Z,14.82
2023-04-29T22:54:55.337Z,15.27
2023-04-29T22:57:22.205Z,13.25
2023-04-29T22:59:53.111Z,12.18
2023-04-29T23:02:20.796Z,14.82
2023-04-29T23:04:49.333Z,11.55
2023-04-29T23:07:17.470Z,13.52
2023-04-29T23:09:44.349Z,15.57
2023-04-29T23:12:11.245Z,16.17
2023-04-29T23:14:38.113Z,14.63
2023-04-29T23:17:05.189Z,14.25
2023-04-29T23:19:32.087Z,15.90
2023-04-29T23:22:00.775Z,14.98
2023-04-29T23:24:27.741Z,14.60
2023-04-29T23:26:54.628Z,11.75
2023-04-29T23:29:21.569Z,13.95
2023-04-29T23:31:48.482Z,14.32
2023-04-29T23:34:18.080Z,14.82
2023-04-29T23:36:44.923Z,13.93
2023-04-29T23:39:11.852Z,16.58
2023-04-29T23:41:38.711Z,15.30
2023-04-29T23:44:05.647Z,14.88
2023-04-29T23:46:32.776Z,15.02
2023-04-29T23:48:59.700Z,13.00
2023-04-29T23:51:26.769Z,13.60
2023-04-29T23:53:53.718Z,14.55
2023-04-29T23:56:20.714Z,13.48
2023-04-29T23:58:47.658Z,13.90
